createdAt,value
2023-03-11T00:02:47.627Z,53.24
2023-03-11T00:05:52.596Z,52.97
2023-03-11T00:08:55.126Z,53.19
2023-03-11T00:11:57.756Z,54.02
2023-03-11T00:15:00.491Z,54.21
2023-03-11T00:18:03.582Z,54.07
2023-03-11T00:21:16.248Z,54.27
2023-03-11T00:24:18.927Z,54.59
2023-03-11T00:27:21.463Z,54.40
2023-03-11T00:30:24.837Z,53.84
2023-03-11T00:33:27.399Z,54.27
2023-03-11T00:36:33.994Z,54.44
2023-03-11T00:39:36.586Z,53.84
2023-03-11T00:42:39.142Z,54.00
2023-03-11T00:45:42.015Z,54.16
2023-03-11T00:48:44.543Z,55.15
2023-03-11T00:51:48.665Z,55.64
2023-03-11T00:54:51.154Z,55.57
2023-03-11T00:57:54.949Z,55.54
2023-03-11T01:00:57.442Z,55.98
2023-03-11T01:04:00.032Z,56.09
2023-03-11T01:07:03.988Z,56.25
2023-03-11T01:10:08.598Z,56.28
2023-03-11T01:13:11.190Z,56.58
2023-03-11T01:16:13.759Z,57.01
2023-03-11T01:19:16.447Z,57.20
2023-03-11T01:22:20.332Z,57.60
2023-03-11T01:25:23.062Z,57.00
2023-03-11T01:28:25.594Z,57.10
2023-03-11T01:31:28.231Z,56.68
2023-03-11T01:34:30.858Z,57.78
2023-03-11T01:37:34.699Z,58.24
2023-03-11T01:40:38.062Z,57.63
2023-03-11T01:43:48.547Z,57.18
2023-03-11T01:47:28.796Z,57.06
2023-03-11T01:50:35.358Z,57.29
2023-03-11T01:53:39.269Z,57.40
2023-03-11T01:56:41.720Z,57.19
2023-03-11T01:59:46.286Z,57.80
2023-03-11T02:02:52.327Z,57.23
2023-03-11T02:05:55.249Z,57.99
2023-03-11T02:09:01.029Z,57.84
2023-03-11T02:12:04.526Z,57.86
2023-03-11T02:15:08.493Z,57.88
2023-03-11T02:18:14.610Z,57.21
2023-03-11T02:21:24.278Z,57.38
2023-03-11T02:24:32.312Z,57.70
2023-03-11T02:27:39.454Z,57.42
2023-03-11T02:30:43.545Z,58.13
2023-03-11T02:33:47.070Z,57.48
2023-03-11T02:36:49.595Z,56.66
2023-03-11T02:39:53.996Z,56.70
2023-03-11T02:42:59.844Z,56.67
2023-03-11T02:46:02.935Z,56.63
2023-03-11T02:49:05.960Z,56.81
2023-03-11T02:52:08.474Z,57.00
2023-03-11T02:55:12.629Z,57.19
2023-03-11T02:58:16.493Z,57.05
2023-03-11T03:01:19.105Z,57.43
2023-03-11T03:04:21.801Z,57.45
2023-03-11T03:07:24.468Z,57.77
2023-03-11T03:10:27.031Z,57.60
2023-03-11T03:13:32.326Z,56.92
2023-03-11T03:16:34.910Z,57.17
2023-03-11T03:19:37.504Z,56.70
2023-03-11T03:22:40.829Z,57.16
2023-03-11T03:25:43.754Z,57.52
2023-03-11T03:28:47.663Z,57.47
2023-03-11T03:31:50.126Z,57.84
2023-03-11T03:34:58.194Z,57.78
2023-03-11T03:38:01.057Z,57.69
2023-03-11T03:41:03.841Z,57.33
2023-03-11T03:44:07.757Z,58.20
2023-03-11T03:47:10.216Z,58.00
2023-03-11T03:50:13.743Z,58.36
2023-03-11T03:53:16.320Z,58.42
2023-03-11T03:56:19.373Z,58.54
2023-03-11T03:59:23.177Z,58.15
2023-03-11T04:02:25.716Z,57.94
2023-03-11T04:05:28.704Z,58.39
2023-03-11T04:08:31.196Z,58.39
2023-03-11T04:11:34.208Z,58.69
2023-03-11T04:14:38.051Z,59.09
2023-03-11T04:17:40.435Z,58.82
2023-03-11T04:20:42.919Z,58.65
2023-03-11T04:23:45.511Z,58.68
2023-03-11T04:26:48.052Z,58.74
2023-03-11T04:29:51.951Z,59.20
2023-03-11T04:32:54.267Z,59.10
2023-03-11T04:35:56.790Z,59.74
2023-03-11T04:38:59.362Z,60.07
2023-03-11T04:42:03.988Z,59.69
2023-03-11T04:45:10.913Z,59.87
2023-03-11T04:48:13.464Z,60.69
2023-03-11T04:51:15.934Z,60.91
2023-03-11T04:54:18.463Z,61.03
2023-03-11T04:57:21.587Z,60.70
2023-03-11T05:00:25.602Z,61.12
2023-03-11T05:03:28.206Z,60.66
2023-03-11T05:06:30.776Z,60.90
2023-03-11T05:09:33.298Z,60.94
2023-03-11T05:12:35.847Z,60.76
2023-03-11T05:15:39.722Z,61.32
2023-03-11T05:18:42.211Z,61.88
2023-03-11T05:21:44.657Z,61.58
2023-03-11T05:24:47.958Z,61.22
2023-03-11T05:27:50.480Z,61.80
2023-03-11T05:30:54.595Z,61.50
2023-03-11T05:33:57.116Z,61.34
2023-03-11T05:37:03.203Z,61.46
2023-03-11T05:40:07.851Z,61.24
2023-03-11T05:43:10.338Z,61.57
2023-03-11T05:46:14.202Z,61.19
2023-03-11T05:49:16.549Z,61.30
2023-03-11T05:52:19.043Z,60.89
2023-03-11T05:55:21.502Z,60.92
2023-03-11T05:58:24.038Z,61.15
2023-03-11T06:01:27.859Z,61.06
2023-03-11T06:04:30.327Z,61.00
2023-03-11T06:07:32.935Z,61.00
2023-03-11T06:10:35.513Z,60.68
2023-03-11T06:13:38.571Z,60.71
2023-03-11T06:16:42.728Z,61.08
2023-03-11T06:19:45.240Z,60.50
2023-03-11T06:22:49.709Z,59.40
2023-03-11T06:25:56.733Z,59.58
2023-03-11T06:28:59.270Z,59.19
2023-03-11T06:32:03.170Z,59.60
2023-03-11T06:35:05.907Z,59.13
2023-03-11T06:38:08.418Z,58.35
2023-03-11T06:41:11.516Z,58.46
2023-03-11T06:44:14.126Z,58.16
2023-03-11T06:47:18.043Z,57.96
2023-03-11T06:50:20.403Z,57.56
2023-03-11T06:53:23.196Z,57.74
2023-03-11T06:56:26.110Z,57.38
2023-03-11T06:59:28.785Z,57.28
2023-03-11T07:02:32.743Z,57.16
2023-03-11T07:05:35.250Z,56.53
2023-03-11T07:08:37.772Z,56.59
2023-03-11T07:11:40.422Z,56.28
2023-03-11T07:14:42.998Z,56.25
2023-03-11T07:17:46.955Z,55.56
2023-03-11T07:20:49.311Z,55.51
2023-03-11T07:23:53.714Z,55.50
2023-03-11T07:26:56.305Z,55.18
2023-03-11T07:29:58.779Z,55.56
2023-03-11T07:33:02.912Z,55.10
2023-03-11T07:36:09.813Z,54.53
2023-03-11T07:39:15.516Z,54.74
2023-03-11T07:42:18.073Z,54.28
2023-03-11T07:45:20.785Z,54.03
2023-03-11T07:48:24.685Z,53.79
2023-03-11T07:51:28.187Z,53.38
2023-03-11T07:54:30.665Z,53.38
2023-03-11T07:57:33.212Z,52.82
2023-03-11T08:00:35.745Z,53.09
2023-03-11T08:03:40.309Z,53.08
2023-03-11T08:06:44.207Z,52.34
2023-03-11T08:09:46.625Z,52.22
2023-03-11T08:12:49.439Z,52.74
2023-03-11T08:15:52.030Z,52.03
2023-03-11T08:18:56.552Z,52.22
2023-03-11T08:21:59.041Z,52.00
2023-03-11T08:25:01.537Z,51.92
2023-03-11T08:28:04.115Z,51.10
2023-03-11T08:31:13.382Z,51.12
2023-03-11T08:34:17.830Z,51.16
2023-03-11T08:37:22.192Z,51.00
2023-03-11T08:40:25.898Z,50.67
2023-03-11T08:43:28.432Z,50.24
2023-03-11T08:46:33.626Z,49.84
2023-03-11T08:49:38.520Z,50.05
2023-03-11T08:52:40.990Z,50.11
2023-03-11T08:55:43.572Z,50.30
2023-03-11T08:58:47.262Z,50.99
2023-03-11T09:01:49.872Z,50.80
2023-03-11T09:04:53.809Z,48.30
2023-03-11T09:07:56.267Z,48.24
2023-03-11T09:10:58.881Z,47.97
2023-03-11T09:14:01.401Z,47.64
2023-03-11T09:17:03.965Z,46.96
2023-03-11T09:20:09.476Z,46.55
2023-03-11T09:23:15.256Z,46.68
2023-03-11T09:26:17.758Z,47.00
2023-03-11T09:29:20.395Z,45.86
2023-03-11T09:32:22.973Z,46.88
2023-03-11T09:35:27.131Z,47.18
2023-03-11T09:38:29.960Z,45.63
2023-03-11T09:41:47.894Z,44.50
2023-03-11T09:45:03.518Z,44.41
2023-03-11T09:48:16.783Z,45.93
2023-03-11T09:51:23.744Z,44.75
2023-03-11T09:54:28.895Z,45.28
2023-03-11T09:57:34.383Z,44.77
2023-03-11T10:00:37.774Z,43.91
2023-03-11T10:03:41.206Z,41.05
2023-03-11T10:06:47.074Z,39.72
2023-03-11T10:09:52.831Z,38.95
2023-03-11T10:13:01.898Z,39.12
2023-03-11T10:16:11.446Z,39.45
2023-03-11T10:19:21.361Z,37.73
2023-03-11T10:22:28.411Z,38.93
2023-03-11T10:25:33.439Z,38.54
2023-03-11T10:28:38.167Z,39.27
2023-03-11T10:31:44.170Z,38.53
2023-03-11T10:34:49.561Z,38.14
2023-03-11T10:37:55.834Z,37.14
2023-03-11T10:41:01.102Z,36.46
2023-03-11T10:44:07.159Z,35.42
2023-03-11T10:47:15.969Z,33.08
2023-03-11T10:50:20.339Z,34.01
2023-03-11T10:53:24.351Z,32.31
2023-03-11T10:56:31.922Z,31.35
2023-03-11T10:59:37.460Z,32.04
2023-03-11T11:02:43.706Z,31.43
2023-03-11T11:05:58.711Z,32.83
2023-03-11T11:09:16.641Z,33.80
2023-03-11T11:12:22.047Z,35.95
2023-03-11T11:15:27.585Z,36.63
2023-03-11T11:18:33.266Z,37.20
2023-03-11T11:21:38.296Z,36.70
2023-03-11T11:24:46.640Z,34.00
2023-03-11T11:27:56.052Z,34.75
2023-03-11T11:31:00.654Z,33.92
2023-03-11T11:34:03.615Z,33.20
2023-03-11T11:37:07.297Z,32.12
2023-03-11T11:40:23.072Z,31.20
2023-03-11T11:43:32.885Z,32.18
2023-03-11T11:46:39.362Z,32.18
2023-03-11T11:49:48.275Z,31.82
2023-03-11T11:52:53.831Z,31.28
2023-03-11T11:55:57.757Z,30.54
2023-03-11T11:59:00.544Z,31.11
2023-03-11T12:02:08.856Z,33.31
2023-03-11T12:05:14.708Z,33.45
2023-03-11T12:08:20.464Z,34.33
2023-03-11T12:11:27.939Z,33.59
2023-03-11T12:14:36.562Z,34.08
2023-03-11T12:17:42.550Z,33.99
2023-03-11T12:20:47.871Z,34.11
2023-03-11T12:23:58.937Z,32.48
2023-03-11T12:27:06.247Z,31.64
2023-03-11T12:30:15.343Z,31.81
2023-03-11T12:33:20.861Z,32.24
2023-03-11T12:36:25.801Z,32.62
2023-03-11T12:39:30.335Z,33.20
2023-03-11T12:42:41.368Z,32.53
2023-03-11T12:45:51.891Z,31.40
2023-03-11T12:49:12.853Z,31.64
2023-03-11T12:52:29.921Z,31.82
2023-03-11T12:55:37.393Z,31.78
2023-03-11T12:58:59.447Z,31.13
2023-03-11T13:02:13.080Z,30.21
2023-03-11T13:05:22.264Z,29.74
2023-03-11T13:08:26.165Z,27.38
2023-03-11T13:11:43.310Z,24.04
2023-03-11T13:14:47.573Z,16.43
2023-03-11T13:18:00.951Z,12.62
2023-03-11T13:21:04.640Z,11.54
2023-03-11T13:24:41.756Z,10.80
2023-03-11T13:27:47.254Z,12.07
2023-03-11T13:30:54.018Z,12.13
2023-03-11T13:33:57.888Z,15.24
2023-03-11T13:37:18.136Z,14.41
2023-03-11T13:40:30.502Z,13.26
2023-03-11T13:43:33.138Z,14.04
2023-03-11T13:46:39.359Z,11.76
2023-03-11T13:49:44.712Z,12.06
2023-03-11T13:52:49.073Z,11.33
2023-03-11T13:55:51.765Z,12.66
2023-03-11T13:58:54.431Z,11.36
2023-03-11T14:02:01.990Z,10.65
2023-03-11T14:05:07.895Z,9.52
2023-03-11T14:08:14.445Z,10.60
2023-03-11T14:11:18.365Z,13.08
2023-03-11T14:14:36.125Z,11.74
2023-03-11T14:17:40.167Z,11.29
2023-03-11T14:20:43.176Z,17.57
2023-03-11T14:23:47.715Z,20.79
2023-03-11T14:26:51.270Z,20.46
2023-03-11T14:29:53.832Z,20.13
2023-03-11T14:33:00.228Z,16.95
2023-03-11T14:36:05.312Z,18.31
2023-03-11T14:39:23.637Z,19.12
2023-03-11T14:42:29.395Z,21.57
2023-03-11T14:45:34.037Z,23.83
2023-03-11T14:48:39.827Z,24.10
2023-03-11T14:51:42.558Z,25.21
2023-03-11T14:54:45.951Z,25.79
2023-03-11T14:57:50.408Z,24.43
2023-03-11T15:00:56.524Z,24.59
2023-03-11T15:04:04.045Z,24.42
2023-03-11T15:07:06.943Z,25.14
2023-03-11T15:10:11.131Z,26.78
2023-03-11T15:13:16.668Z,28.00
2023-03-11T15:16:30.401Z,28.90
2023-03-11T15:19:35.403Z,29.82
2023-03-11T15:22:39.656Z,30.93
2023-03-11T15:25:50.038Z,30.80
2023-03-11T15:28:58.613Z,30.15
2023-03-11T15:32:01.762Z,30.39
2023-03-11T15:35:15.310Z,30.26
2023-03-11T15:38:23.607Z,30.36
2023-03-11T15:41:26.119Z,30.26
2023-03-11T15:44:31.450Z,30.31
2023-03-11T15:47:35.906Z,31.76
2023-03-11T15:50:53.260Z,32.33
2023-03-11T15:53:56.527Z,33.40
2023-03-11T15:57:01.064Z,34.21
2023-03-11T16:00:05.127Z,34.88
2023-03-11T16:03:07.693Z,35.77
2023-03-11T16:06:11.520Z,35.72
2023-03-11T16:09:14.500Z,35.64
2023-03-11T16:12:18.296Z,35.86
2023-03-11T16:15:25.120Z,36.88
2023-03-11T16:18:27.739Z,37.58
2023-03-11T16:21:35.260Z,37.63
2023-03-11T16:24:37.755Z,36.91
2023-03-11T16:27:40.482Z,36.81
2023-03-11T16:30:43.199Z,36.58
2023-03-11T16:33:45.810Z,37.32
2023-03-11T16:36:49.683Z,37.92
2023-03-11T16:39:52.635Z,37.72
2023-03-11T16:42:56.835Z,37.72
2023-03-11T16:45:59.275Z,38.33
2023-03-11T16:49:02.168Z,38.46
2023-03-11T16:52:06.493Z,38.28
2023-03-11T16:55:09.810Z,39.43
2023-03-11T16:58:12.492Z,38.76
2023-03-11T17:01:15.155Z,38.78
2023-03-11T17:04:18.706Z,39.37
2023-03-11T17:07:24.091Z,39.64
2023-03-11T17:10:28.066Z,39.57
2023-03-11T17:13:30.718Z,39.94
2023-03-11T17:16:35.388Z,40.44
2023-03-11T17:19:38.087Z,40.90
2023-03-11T17:22:41.990Z,40.63
2023-03-11T17:25:44.459Z,40.85
2023-03-11T17:28:47.793Z,41.45
2023-03-11T17:31:50.634Z,41.96
2023-03-11T17:34:53.394Z,42.07
2023-03-11T17:37:58.620Z,42.42
2023-03-11T17:41:01.243Z,42.99
2023-03-11T17:44:03.961Z,42.60
2023-03-11T17:47:06.768Z,42.19
2023-03-11T17:50:10.498Z,42.29
2023-03-11T17:53:14.498Z,42.55
2023-03-11T17:56:19.033Z,42.89
2023-03-11T17:59:21.534Z,43.15
2023-03-11T18:02:24.245Z,43.09
2023-03-11T18:05:26.892Z,42.69
2023-03-11T18:08:31.240Z,43.70
2023-03-11T18:11:34.133Z,43.78
2023-03-11T18:14:37.449Z,43.88
2023-03-11T18:17:39.936Z,43.96
2023-03-11T18:20:42.575Z,44.27
2023-03-11T18:23:46.654Z,44.43
2023-03-11T18:26:49.177Z,44.61
2023-03-11T18:29:52.051Z,45.30
2023-03-11T18:32:54.550Z,44.79
2023-03-11T18:35:57.135Z,45.38
2023-03-11T18:39:02.366Z,45.74
2023-03-11T18:42:05.761Z,45.74
2023-03-11T18:45:12.032Z,45.91
2023-03-11T18:48:14.539Z,46.50
2023-03-11T18:51:17.090Z,46.57
2023-03-11T18:54:21.269Z,47.04
2023-03-11T18:57:23.958Z,48.14
2023-03-11T19:00:27.098Z,48.77
2023-03-11T19:03:29.634Z,49.45
2023-03-11T19:06:32.343Z,50.33
2023-03-11T19:09:37.050Z,50.27
2023-03-11T19:12:39.966Z,50.62
2023-03-11T19:15:42.922Z,51.46
2023-03-11T19:18:45.593Z,51.92
2023-03-11T19:21:48.170Z,52.25
2023-03-11T19:24:54.271Z,52.48
2023-03-11T19:27:57.741Z,52.68
2023-03-11T19:31:00.598Z,52.82
2023-03-11T19:34:04.231Z,53.05
2023-03-11T19:37:09.189Z,53.07
2023-03-11T19:40:15.381Z,53.49
2023-03-11T19:43:19.214Z,53.74
2023-03-11T19:46:22.700Z,54.15
2023-03-11T19:49:25.296Z,53.98
2023-03-11T19:52:27.781Z,54.23
2023-03-11T19:55:31.786Z,54.16
2023-03-11T19:58:35.903Z,54.61
2023-03-11T20:01:38.589Z,53.87
2023-03-11T20:04:43.215Z,54.48
2023-03-11T20:07:45.952Z,55.35
2023-03-11T20:10:51.182Z,56.10
2023-03-11T20:13:53.894Z,56.20
2023-03-11T20:16:56.573Z,56.07
2023-03-11T20:19:59.173Z,56.34
2023-03-11T20:23:02.589Z,56.40
2023-03-11T20:26:07.837Z,57.31
2023-03-11T20:29:10.489Z,57.66
2023-03-11T20:32:13.192Z,57.48
2023-03-11T20:35:17.873Z,57.68
2023-03-11T20:38:20.498Z,57.30
2023-03-11T20:41:26.036Z,57.06
2023-03-11T20:44:28.614Z,57.24
2023-03-11T20:47:31.173Z,57.50
2023-03-11T20:50:33.851Z,57.91
2023-03-11T20:53:36.338Z,58.23
2023-03-11T20:56:40.236Z,58.15
2023-03-11T20:59:42.943Z,58.59
2023-03-11T21:02:45.680Z,57.88
2023-03-11T21:05:48.429Z,57.92
2023-03-11T21:08:51.069Z,58.40
2023-03-11T21:11:55.053Z,58.27
2023-03-11T21:14:57.655Z,59.13
2023-03-11T21:18:00.271Z,59.15
2023-03-11T21:21:03.828Z,59.51
2023-03-11T21:24:06.951Z,59.09
2023-03-11T21:27:10.939Z,58.55
2023-03-11T21:30:14.516Z,58.52
2023-03-11T21:33:17.614Z,59.16
2023-03-11T21:36:20.324Z,59.92
2023-03-11T21:39:22.859Z,59.87
2023-03-11T21:42:29.892Z,59.59
2023-03-11T21:45:32.499Z,59.84
2023-03-11T21:48:35.212Z,60.17
2023-03-11T21:51:37.964Z,60.65
2023-03-11T21:54:40.692Z,60.79
2023-03-11T21:57:44.545Z,60.53
2023-03-11T22:00:47.176Z,59.62
2023-03-11T22:03:50.067Z,59.55
2023-03-11T22:06:52.609Z,59.90
2023-03-11T22:09:55.338Z,60.14
2023-03-11T22:12:59.456Z,60.38
2023-03-11T22:16:03.091Z,60.71
2023-03-11T22:19:08.740Z,60.92
2023-03-11T22:22:11.395Z,60.55
2023-03-11T22:25:14.412Z,61.10
2023-03-11T22:28:18.202Z,61.44
2023-03-11T22:31:20.784Z,61.53
2023-03-11T22:34:23.544Z,61.88
2023-03-11T22:37:26.219Z,62.18
2023-03-11T22:40:28.919Z,61.90
2023-03-11T22:43:32.758Z,61.59
2023-03-11T22:46:35.336Z,61.42
2023-03-11T22:49:38.186Z,61.20
2023-03-11T22:52:40.796Z,61.12
2023-03-11T22:55:44.840Z,61.88
2023-03-11T22:58:48.683Z,61.38
2023-03-11T23:01:51.146Z,61.63
2023-03-11T23:04:53.629Z,61.44
2023-03-11T23:07:56.113Z,61.29
2023-03-11T23:11:02.704Z,61.18
2023-03-11T23:14:06.561Z,61.80
2023-03-11T23:17:08.914Z,62.07
2023-03-11T23:20:14.205Z,62.02
2023-03-11T23:23:16.706Z,61.99
2023-03-11T23:26:19.852Z,62.14
2023-03-11T23:29:23.765Z,62.18
2023-03-11T23:32:26.216Z,62.39
2023-03-11T23:35:28.668Z,63.29
2023-03-11T23:38:31.172Z,63.71
2023-03-11T23:41:33.813Z,63.09
2023-03-11T23:44:37.671Z,62.47
2023-03-11T23:47:40.039Z,62.19
2023-03-11T23:50:46.256Z,62.05
2023-03-11T23:53:48.862Z,62.23
2023-03-11T23:56:51.365Z,62.37
2023-03-11T23:59:55.254Z,62.17
